Aviation Digital Data Service (ADDS)

Output produced by METARs form (1907 UTC 25 June 2017)
found at http://www.aviationweather.gov/adds/metars/
 
MNBL 251800Z 09004KT 9999 BKN017 30/25 Q1013
MNBL 251430Z 2518/2618 05008KT 8000 VCRA/-DZ FEW017CB SCT070 
     TEMPO 2518/2520 5000 -TSRA/DZ 
     BECMG 2522/2602 06006KT 9999 BKN017
       
MNMG 251900Z 06012KT 9999 SCT025TCU 32/23 Q1010 A2985 TCU/SE/S/SW/N NOSIG
MNMG 251430Z 2518/2618 07010KT 9999 FEW023 SCT300 
     BECMG 2521/2603 09012KT 8000 DZ/-TSRA FEW020CB SCT020
       
MNPC 251800Z 00000KT 5000 TSRA FEW014CB SCT018 26/24 Q1013 CBRA/N/NW/W/SW
MNPC 251430Z 2518/2618 05012KT 2000 TSRA/DZ FEW014CB BKN016 
     BECMG 2520/2600 07008KT 5000 DZ/VCRA BKN016TCU SCT100